Airfield :
LOGIN :

Register | Disclaimer

   EN    FR    IT 

 










Legend :    VFR   Marginal VFR   IFR   Intensive IFR   Very Intensive IFR
Visi :
Ceiling :
>= 8 km
>= 3000ft
5 to 8 km
1000 to 3000 ft
1500m to 5 km
500 to 1000 ft
800 to 1500m
200 to 500 ft
< 800m
< 200 ft
Symbols :   Thunderstorms  Fog  Heavy snow  Heavy precipitations  Wind > 20 kt
SIGMETs :     Misc.  Thunderstorms  Icing  Turbulence  Mountain Waves  Volcanic Ashes






- Airport Elevation : 80 ft
- IATA code : LPL


EGGP - Liverpool John Lennon

CURRENT METAR :
  • 271050Z 33009KT 7000 -RA SCT026 BKN042 11/08 Q1001

EXPIRED METARs :
  • 271020Z 32005KT 260V350 9999 SCT026 BKN042 11/08 Q1001
  • 270950Z 31007KT 280V360 9999 VCSH SCT034 BKN042 12/07 Q1001
  • 270920Z 31010KT 9999 -SHRA FEW022 SCT029 BKN035 11/07 Q1001
  • 270850Z 32011KT 280V350 9999 -SHRA FEW022 SCT029 BKN035 11/06 Q1001
  • 270820Z 32009KT 9999 -SHRA FEW022 SCT029 BKN035 10/08 Q1001

TAF TAF EGGP
Valid from the 27 at 06:00 until the 28 at 06:00 UTC


270500Z 2706/2806 34008KT 9999 SCT020
TEMPO 2706/2720 6000 SHRA
TEMPO 2708/2721 33018G28KT
PROB40
TEMPO 2710/2719 3000 +SHRA BKN014
ATIS : +44 151 907 2000 (option 5 or ext 5150)
Met : +44 871 750 5150



MET'MAP, your aeronautical weather chart ! - Copyright ORBIFLY December 2007 - Disclaimer

ORBIFLY MET'MAP TEAM :

Programming & Development : Alexandra Zaïnal
Original concept : Baudouin d'Aumeries
Technical & hardware support : Manuel Goepfert
Assistance : Marc-Olivier Méhu




SOURCES & CREDITS :

   NOAA